Weather at Las Obas Airport

Public forecast

Using degrees Celsius for public forecast. Weather courtesy of forecast.io.

Closest aviation weather report (METAR) to Las Obas Airport

Closest report is Abel Santamaria Airport, 60.3 nm (111.7 km) NNW.

2024/07/25 18:50 (retrieved 1 hour ago)

MUSC 251850Z 09011KT 060V130 9000 SCT018 33/24 Q1018

Closest aviation forecast (TAF) to Las Obas Airport

Forecast is more than 12 hours old.

Closest forecast is Jaime Gonzalez Airport, 66.7 nm (123.6 km) WNW.

2024/07/23 18:03 (retrieved 2 days ago)

TAF MUCF 231700Z 2318/2406 07008KT 9000 SCT020 TEMPO 2321/2324 VRB10KT 5000 SHRA RA FEW018CB BKN020 BECMG 2400/2401 VRB03KT